Lacamp, Louisiana
Current Conditions -  °F | °C
As of 6:58 PM on Sunday 23 Nov 2014 (Local Time) from KPOE Reporting Station
Clear Clear  
Wind Chill: 64°   Ceiling: Unl
Heat Index: 64°   Visibility: 10mi
Dew Point: 59°   Wind: 8mph
Humidity: 84%   Direction: 180°S
Pressure: 29.59"   Gusts: NA
Location:  31.16°N, 92.91°W
Report Text: KPOE 240058Z AUTO 18007KT 10SM CLR 18/15 A2959 RMK AO2 SLP020 T01780151
Loading
Personal Weather Stations






























Interactive Weather Map New forecast layout! Learn more

10-Day Weather Forecast

Advertisements
Track Severe Weather on mobile